createdAt,value
2022-08-24T00:01:28.130Z,100645.00
2022-08-24T00:03:59.659Z,100644.00
2022-08-24T00:06:28.650Z,100636.00
2022-08-24T00:08:58.162Z,100638.00
2022-08-24T00:11:26.239Z,100619.00
2022-08-24T00:13:53.542Z,100639.00
2022-08-24T00:16:21.624Z,100641.00
2022-08-24T00:18:49.338Z,100641.00
2022-08-24T00:21:16.616Z,100613.00
2022-08-24T00:23:43.590Z,100619.00
2022-08-24T00:26:11.110Z,100613.00
2022-08-24T00:28:38.334Z,100614.00
2022-08-24T00:31:05.392Z,100628.00
2022-08-24T00:33:35.550Z,100623.00
2022-08-24T00:36:03.989Z,100617.00
2022-08-24T00:38:35.523Z,100622.00
2022-08-24T00:41:04.196Z,100629.00
2022-08-24T00:43:31.882Z,100620.00
2022-08-24T00:46:17.606Z,100625.00
2022-08-24T00:48:50.618Z,100620.00
2022-08-24T00:51:31.162Z,100626.00
2022-08-24T00:54:09.789Z,100634.00
2022-08-24T00:56:43.825Z,100620.00
2022-08-24T00:59:38.260Z,100632.00
2022-08-24T01:02:42.011Z,100642.00
2022-08-24T01:05:12.285Z,100640.00
2022-08-24T01:07:40.642Z,100633.00
2022-08-24T01:10:20.936Z,100628.00
2022-08-24T01:13:00.035Z,100639.00
2022-08-24T01:15:37.732Z,100632.00
2022-08-24T01:18:27.051Z,100635.00
2022-08-24T01:21:07.396Z,100646.00
2022-08-24T01:23:51.178Z,100635.00
2022-08-24T01:26:38.096Z,100636.00
2022-08-24T01:29:11.217Z,100633.00
2022-08-24T01:31:38.183Z,100633.00
2022-08-24T01:34:06.123Z,100638.00
2022-08-24T01:36:46.144Z,100628.00
2022-08-24T01:39:28.845Z,100631.00
2022-08-24T01:41:56.912Z,100641.00
2022-08-24T01:44:27.282Z,100634.00
2022-08-24T01:46:56.579Z,100630.00
2022-08-24T01:49:28.704Z,100631.00
2022-08-24T01:51:57.128Z,100627.00
2022-08-24T01:54:25.361Z,100629.00
2022-08-24T01:56:53.009Z,100639.00
2022-08-24T01:59:22.335Z,100647.00
2022-08-24T02:01:56.695Z,100648.00
2022-08-24T02:04:23.733Z,100649.00
2022-08-24T02:06:51.052Z,100651.00
2022-08-24T02:09:18.137Z,100656.00
2022-08-24T02:11:45.461Z,100656.00
2022-08-24T02:14:13.622Z,100654.00
2022-08-24T02:16:42.571Z,100639.00
2022-08-24T02:19:09.419Z,100648.00
2022-08-24T02:21:36.452Z,100655.00
2022-08-24T02:24:04.520Z,100663.00
2022-08-24T02:26:31.804Z,100660.00
2022-08-24T02:28:59.250Z,100662.00
2022-08-24T02:31:30.451Z,100665.00
2022-08-24T02:33:57.481Z,100661.00
2022-08-24T02:36:26.149Z,100646.00
2022-08-24T02:38:55.028Z,100666.00
2022-08-24T02:41:25.479Z,100671.00
2022-08-24T02:43:53.937Z,100676.00
2022-08-24T02:46:25.823Z,100671.00
2022-08-24T02:48:58.075Z,100669.00
2022-08-24T02:51:44.834Z,100678.00
2022-08-24T02:54:18.014Z,100683.00
2022-08-24T02:56:47.263Z,100680.00
2022-08-24T02:59:16.171Z,100692.00
2022-08-24T03:01:43.816Z,100703.00
2022-08-24T03:04:12.239Z,100695.00
2022-08-24T03:06:39.270Z,100693.00
2022-08-24T03:09:06.309Z,100697.00
2022-08-24T03:11:33.459Z,100683.00
2022-08-24T03:14:00.605Z,100690.00
2022-08-24T03:16:29.564Z,100703.00
2022-08-24T03:18:56.710Z,100699.00
2022-08-24T03:21:23.679Z,100704.00
2022-08-24T03:23:50.525Z,100704.00
2022-08-24T03:26:17.735Z,100706.00
2022-08-24T03:28:45.250Z,100715.00
2022-08-24T03:31:13.245Z,100707.00
2022-08-24T03:33:40.945Z,100711.00
2022-08-24T03:36:13.554Z,100706.00
2022-08-24T03:38:41.554Z,100702.00
2022-08-24T03:41:09.271Z,100712.00
2022-08-24T03:43:47.323Z,100701.00
2022-08-24T03:46:25.227Z,100711.00
2022-08-24T03:48:54.529Z,100721.00
2022-08-24T03:51:25.950Z,100714.00
2022-08-24T03:53:55.239Z,100720.00
2022-08-24T03:56:22.117Z,100707.00
2022-08-24T03:58:49.425Z,100719.00
2022-08-24T04:01:17.796Z,100723.00
2022-08-24T04:03:49.113Z,100710.00
2022-08-24T04:06:19.538Z,100730.00
2022-08-24T04:08:47.301Z,100729.00
2022-08-24T04:11:20.252Z,100738.00
2022-08-24T04:13:48.173Z,100731.00
2022-08-24T04:16:18.480Z,100735.00
2022-08-24T04:18:45.759Z,100733.00
2022-08-24T04:21:18.473Z,100735.00
2022-08-24T04:23:47.140Z,100739.00
2022-08-24T04:26:25.661Z,100738.00
2022-08-24T04:29:09.427Z,100750.00
2022-08-24T04:31:38.305Z,100745.00
2022-08-24T04:34:07.535Z,100752.00
2022-08-24T04:36:35.438Z,100761.00
2022-08-24T04:39:03.863Z,100757.00
2022-08-24T04:41:31.318Z,100748.00
2022-08-24T04:44:00.367Z,100761.00
2022-08-24T04:46:28.500Z,100757.00
2022-08-24T04:48:55.577Z,100759.00
2022-08-24T04:51:22.856Z,100765.00
2022-08-24T04:53:51.683Z,100759.00
2022-08-24T04:56:26.303Z,100771.00
2022-08-24T04:58:55.550Z,100764.00
2022-08-24T05:01:27.197Z,100767.00
2022-08-24T05:03:56.216Z,100770.00
2022-08-24T05:06:32.697Z,100764.00
2022-08-24T05:09:00.865Z,100769.00
2022-08-24T05:11:28.500Z,100770.00
2022-08-24T05:13:57.257Z,100769.00
2022-08-24T05:16:26.075Z,100778.00
2022-08-24T05:18:56.641Z,100778.00
2022-08-24T05:21:29.985Z,100784.00
2022-08-24T05:23:57.115Z,100785.00
2022-08-24T05:26:27.350Z,100782.00
2022-08-24T05:29:00.273Z,100781.00
2022-08-24T05:31:30.837Z,100769.00
2022-08-24T05:34:00.215Z,100781.00
2022-08-24T05:36:32.581Z,100784.00
2022-08-24T05:39:08.038Z,100782.00
2022-08-24T05:41:38.579Z,100775.00
2022-08-24T05:44:09.839Z,100776.00
2022-08-24T05:46:36.961Z,100768.00
2022-08-24T05:49:05.355Z,100779.00
2022-08-24T05:51:32.586Z,100770.00
2022-08-24T05:54:00.660Z,100775.00
2022-08-24T05:56:31.846Z,100778.00
2022-08-24T05:58:59.278Z,100779.00
2022-08-24T06:01:27.522Z,100788.00
2022-08-24T06:03:59.171Z,100785.00
2022-08-24T06:06:27.447Z,100777.00
2022-08-24T06:08:59.047Z,100791.00
2022-08-24T06:11:37.285Z,100790.00
2022-08-24T06:14:12.938Z,100793.00
2022-08-24T06:16:45.201Z,100790.00
2022-08-24T06:19:18.032Z,100799.00
2022-08-24T06:21:48.116Z,100809.00
2022-08-24T06:24:16.347Z,100808.00
2022-08-24T06:27:04.425Z,100810.00
2022-08-24T06:29:34.954Z,100809.00
2022-08-24T06:32:02.012Z,100778.00
2022-08-24T06:34:29.021Z,100817.00
2022-08-24T06:36:55.893Z,100812.00
2022-08-24T06:39:23.791Z,100811.00
2022-08-24T06:41:52.449Z,100809.00
2022-08-24T06:44:19.352Z,100812.00
2022-08-24T06:46:46.408Z,100811.00
2022-08-24T06:49:13.595Z,100814.00
2022-08-24T06:51:40.536Z,100812.00
2022-08-24T06:54:07.442Z,100806.00
2022-08-24T06:56:37.957Z,100809.00
2022-08-24T06:59:06.107Z,100832.00
2022-08-24T07:01:33.167Z,100808.00
2022-08-24T07:04:00.162Z,100814.00
2022-08-24T07:06:27.197Z,100815.00
2022-08-24T07:08:56.507Z,100808.00
2022-08-24T07:11:25.082Z,100817.00
2022-08-24T07:13:51.986Z,100821.00
2022-08-24T07:16:20.912Z,100825.00
2022-08-24T07:18:50.295Z,100812.00
2022-08-24T07:21:20.049Z,100806.00
2022-08-24T07:23:49.530Z,100812.00
2022-08-24T07:26:22.318Z,100816.00
2022-08-24T07:28:54.104Z,100811.00
2022-08-24T07:31:21.270Z,100813.00
2022-08-24T07:33:51.440Z,100812.00
2022-08-24T07:36:22.542Z,100808.00
2022-08-24T07:38:52.514Z,100814.00
2022-08-24T07:41:56.659Z,100829.00
2022-08-24T07:44:13.460Z,100835.00
2022-08-24T07:46:41.956Z,100830.00
2022-08-24T07:49:21.402Z,100823.00
2022-08-24T07:51:58.296Z,100825.00
2022-08-24T07:54:25.424Z,100813.00
2022-08-24T07:56:52.590Z,100822.00
2022-08-24T07:59:19.671Z,100821.00
2022-08-24T08:01:46.598Z,100824.00
2022-08-24T08:04:15.346Z,100833.00
2022-08-24T08:06:43.306Z,100836.00
2022-08-24T08:09:10.338Z,100836.00
2022-08-24T08:11:37.291Z,100832.00
2022-08-24T08:14:04.391Z,100831.00
2022-08-24T08:16:33.488Z,100844.00
2022-08-24T08:19:09.883Z,100844.00
2022-08-24T08:22:06.370Z,100853.00
2022-08-24T08:24:33.946Z,100863.00
2022-08-24T08:27:01.339Z,100870.00
2022-08-24T08:29:31.380Z,100870.00
2022-08-24T08:31:58.602Z,100867.00
2022-08-24T08:34:25.883Z,100860.00
2022-08-24T08:36:53.972Z,100869.00
2022-08-24T08:39:23.581Z,100863.00
2022-08-24T08:42:25.484Z,100882.00
2022-08-24T08:45:17.191Z,100876.00
2022-08-24T08:47:49.970Z,100876.00
2022-08-24T08:50:26.081Z,100890.00
2022-08-24T08:53:32.741Z,100882.00
2022-08-24T08:56:47.302Z,100860.00
2022-08-24T08:59:54.354Z,100868.00
2022-08-24T09:02:51.998Z,100880.00
2022-08-24T09:05:39.780Z,100879.00
2022-08-24T09:08:25.210Z,100878.00
2022-08-24T09:11:21.042Z,100864.00
2022-08-24T09:14:25.828Z,100869.00
2022-08-24T09:17:12.982Z,100863.00
2022-08-24T09:19:56.774Z,100863.00
2022-08-24T09:22:24.004Z,100858.00
2022-08-24T09:25:02.271Z,100860.00
2022-08-24T09:28:08.409Z,100807.00
2022-08-24T09:31:22.048Z,100855.00
2022-08-24T09:34:25.960Z,100844.00
2022-08-24T09:36:53.260Z,100853.00
2022-08-24T09:39:49.642Z,100848.00
2022-08-24T09:42:57.791Z,100845.00
2022-08-24T09:45:44.715Z,100867.00
2022-08-24T09:49:01.578Z,100864.00
2022-08-24T09:51:43.511Z,100872.00
2022-08-24T09:54:57.960Z,100862.00
2022-08-24T09:58:20.989Z,100873.00
2022-08-24T10:01:22.416Z,100872.00
2022-08-24T10:04:08.526Z,100863.00
2022-08-24T10:07:29.977Z,100860.00
2022-08-24T10:10:26.715Z,100870.00
2022-08-24T10:13:18.551Z,100864.00
2022-08-24T10:16:09.267Z,100861.00
2022-08-24T10:18:51.635Z,100855.00
2022-08-24T10:21:50.450Z,100861.00
2022-08-24T10:24:58.624Z,100859.00
2022-08-24T10:27:47.860Z,100860.00
2022-08-24T10:30:40.073Z,100859.00
2022-08-24T10:33:25.045Z,100855.00
2022-08-24T10:36:48.322Z,100859.00
2022-08-24T10:40:00.105Z,100875.00
2022-08-24T10:43:09.409Z,100882.00
2022-08-24T10:45:54.920Z,100871.00
2022-08-24T10:48:33.252Z,100874.00
2022-08-24T10:51:10.227Z,100871.00
2022-08-24T10:53:37.607Z,100857.00
2022-08-24T10:56:20.228Z,100870.00
2022-08-24T10:59:02.143Z,100869.00
2022-08-24T11:01:38.442Z,100868.00
2022-08-24T11:04:11.869Z,100860.00
2022-08-24T11:07:04.870Z,100870.00
2022-08-24T11:09:51.885Z,100872.00
2022-08-24T11:12:44.164Z,100874.00
2022-08-24T11:15:28.060Z,100873.00
2022-08-24T11:18:01.446Z,100878.00
2022-08-24T11:20:40.257Z,100869.00
2022-08-24T11:23:22.470Z,100870.00
2022-08-24T11:26:04.467Z,100871.00
2022-08-24T11:28:47.721Z,100880.00
2022-08-24T11:31:32.692Z,100882.00
2022-08-24T11:34:10.781Z,100878.00
2022-08-24T11:36:41.920Z,100879.00
2022-08-24T11:39:25.662Z,100880.00
2022-08-24T11:42:07.475Z,100872.00
2022-08-24T11:45:17.913Z,100869.00
2022-08-24T11:48:12.643Z,100867.00
2022-08-24T11:51:25.775Z,100869.00
2022-08-24T11:54:24.768Z,100880.00
2022-08-24T11:57:25.518Z,100892.00
2022-08-24T12:00:36.698Z,100890.00
2022-08-24T12:03:30.342Z,100887.00
2022-08-24T12:06:47.099Z,100896.00
2022-08-24T12:10:00.008Z,100899.00
2022-08-24T12:12:46.448Z,100880.00
2022-08-24T12:15:38.985Z,100890.00
2022-08-24T12:18:44.757Z,100889.00
2022-08-24T12:21:18.537Z,100895.00
2022-08-24T12:23:55.321Z,100877.00
2022-08-24T12:26:38.286Z,100896.00
2022-08-24T12:29:54.529Z,100889.00
2022-08-24T12:32:39.127Z,100894.00
2022-08-24T12:35:24.578Z,100902.00
2022-08-24T12:38:09.164Z,100903.00
2022-08-24T12:40:56.963Z,100890.00
2022-08-24T12:43:49.833Z,100899.00
2022-08-24T12:46:26.625Z,100896.00
2022-08-24T12:49:08.437Z,100895.00
2022-08-24T12:52:18.810Z,100896.00
2022-08-24T12:55:14.367Z,100908.00
2022-08-24T12:58:30.926Z,100899.00
2022-08-24T13:00:52.738Z,100907.00
2022-08-24T13:03:37.518Z,100905.00
2022-08-24T13:06:24.626Z,100906.00
2022-08-24T13:09:27.462Z,100901.00
2022-08-24T13:11:58.367Z,100902.00
2022-08-24T13:14:29.431Z,100893.00
2022-08-24T13:16:59.435Z,100911.00
2022-08-24T13:19:37.483Z,100912.00
2022-08-24T13:22:10.508Z,100913.00
2022-08-24T13:24:48.378Z,100913.00
2022-08-24T13:27:15.898Z,100911.00
2022-08-24T13:29:48.675Z,100912.00
2022-08-24T13:32:38.474Z,100908.00
2022-08-24T13:35:30.431Z,100911.00
2022-08-24T13:38:34.140Z,100918.00
2022-08-24T13:41:32.395Z,100924.00
2022-08-24T13:44:30.757Z,100920.00
2022-08-24T13:47:24.082Z,100919.00
2022-08-24T13:50:01.937Z,100924.00
2022-08-24T13:52:31.662Z,100914.00
2022-08-24T13:55:20.572Z,100919.00
2022-08-24T13:58:06.385Z,100915.00
2022-08-24T14:00:49.108Z,100913.00
2022-08-24T14:03:56.347Z,100912.00
2022-08-24T14:06:35.882Z,100916.00
2022-08-24T14:09:43.232Z,100917.00
2022-08-24T14:12:31.985Z,100918.00
2022-08-24T14:15:24.426Z,100920.00
2022-08-24T14:18:06.739Z,100915.00
2022-08-24T14:21:17.877Z,100918.00
2022-08-24T14:24:11.152Z,100921.00
2022-08-24T14:26:40.774Z,100923.00
2022-08-24T14:29:40.646Z,100921.00
2022-08-24T14:32:11.613Z,100926.00
2022-08-24T14:34:42.180Z,100934.00
2022-08-24T14:37:16.399Z,100926.00
2022-08-24T14:40:20.641Z,100925.00
2022-08-24T14:43:21.966Z,100920.00
2022-08-24T14:45:52.088Z,100919.00
2022-08-24T14:48:38.529Z,100919.00
2022-08-24T14:51:59.361Z,100914.00
2022-08-24T14:55:03.833Z,100911.00
2022-08-24T14:57:56.752Z,100915.00
2022-08-24T15:01:10.450Z,100922.00
2022-08-24T15:04:12.559Z,100925.00
2022-08-24T15:06:45.365Z,100921.00
2022-08-24T15:09:36.477Z,100926.00
2022-08-24T15:12:38.396Z,100924.00
2022-08-24T15:15:21.366Z,100928.00
2022-08-24T15:18:20.112Z,100923.00
2022-08-24T15:21:12.734Z,100922.00
2022-08-24T15:24:00.075Z,100921.00
2022-08-24T15:27:10.397Z,100924.00
2022-08-24T15:29:55.127Z,100921.00
2022-08-24T15:32:28.193Z,100922.00
2022-08-24T15:34:58.474Z,100917.00
2022-08-24T15:37:40.093Z,100919.00
2022-08-24T15:40:27.000Z,100920.00
2022-08-24T15:42:55.249Z,100912.00
2022-08-24T15:45:23.455Z,100923.00
2022-08-24T15:47:53.141Z,100919.00
2022-08-24T15:50:34.419Z,100922.00
2022-08-24T15:53:24.968Z,100914.00
2022-08-24T15:55:53.281Z,100915.00
2022-08-24T15:58:38.797Z,100913.00
2022-08-24T16:01:30.354Z,100924.00
2022-08-24T16:04:01.103Z,100926.00
2022-08-24T16:06:34.454Z,100925.00
2022-08-24T16:09:22.547Z,100926.00
2022-08-24T16:12:10.028Z,100934.00
2022-08-24T16:14:47.676Z,100924.00
2022-08-24T16:18:01.199Z,100925.00
2022-08-24T16:20:34.415Z,100925.00
2022-08-24T16:23:21.977Z,100930.00
2022-08-24T16:25:51.222Z,100937.00
2022-08-24T16:28:24.615Z,100940.00
2022-08-24T16:31:00.860Z,100941.00
2022-08-24T16:33:33.371Z,100941.00
2022-08-24T16:36:04.702Z,100941.00
2022-08-24T16:38:34.130Z,100935.00
2022-08-24T16:41:06.547Z,100944.00
2022-08-24T16:43:37.096Z,100938.00
2022-08-24T16:46:08.446Z,100945.00
2022-08-24T16:48:35.652Z,100948.00
2022-08-24T16:51:03.285Z,100953.00
2022-08-24T16:53:30.429Z,100955.00
2022-08-24T16:55:59.285Z,100966.00
2022-08-24T16:58:33.022Z,100968.00
2022-08-24T17:01:01.411Z,100968.00
2022-08-24T17:03:29.273Z,100973.00
2022-08-24T17:05:57.700Z,100972.00
2022-08-24T17:08:27.558Z,100972.00
2022-08-24T17:10:55.408Z,100973.00
2022-08-24T17:13:46.088Z,100969.00
2022-08-24T17:16:12.533Z,100967.00
2022-08-24T17:18:41.586Z,100978.00
2022-08-24T17:21:08.928Z,100975.00
2022-08-24T17:23:37.000Z,100978.00
2022-08-24T17:26:20.620Z,100977.00
2022-08-24T17:28:52.661Z,100984.00
2022-08-24T17:31:19.937Z,100987.00
2022-08-24T17:33:47.038Z,100994.00
2022-08-24T17:36:16.141Z,100984.00
2022-08-24T17:38:55.531Z,100995.00
2022-08-24T17:41:25.664Z,100992.00
2022-08-24T17:43:54.505Z,100983.00
2022-08-24T17:46:22.544Z,100981.00
2022-08-24T17:48:50.457Z,100993.00
2022-08-24T17:51:17.471Z,100996.00
2022-08-24T17:53:44.607Z,101000.00
2022-08-24T17:56:13.985Z,101005.00
2022-08-24T17:59:01.319Z,100992.00
2022-08-24T18:01:30.184Z,101009.00
2022-08-24T18:03:57.324Z,101010.00
2022-08-24T18:06:27.667Z,101016.00
2022-08-24T18:08:58.222Z,100998.00
2022-08-24T18:11:26.117Z,101014.00
2022-08-24T18:13:54.410Z,101008.00
2022-08-24T18:16:24.800Z,101019.00
2022-08-24T18:18:53.623Z,101016.00
2022-08-24T18:21:22.113Z,101002.00
2022-08-24T18:23:50.840Z,101021.00
2022-08-24T18:26:29.632Z,101030.00
2022-08-24T18:29:03.195Z,101030.00
2022-08-24T18:31:31.905Z,101034.00
2022-08-24T18:33:58.897Z,101037.00
2022-08-24T18:36:25.795Z,101040.00
2022-08-24T18:38:53.347Z,101037.00
2022-08-24T18:41:21.229Z,101032.00
2022-08-24T18:43:48.826Z,101029.00
2022-08-24T18:46:15.761Z,101031.00
2022-08-24T18:48:42.687Z,101026.00
2022-08-24T18:51:13.293Z,101005.00
2022-08-24T18:53:40.399Z,101025.00
2022-08-24T18:56:12.495Z,101027.00
2022-08-24T18:58:40.195Z,101022.00
2022-08-24T19:01:07.681Z,101026.00
2022-08-24T19:03:35.108Z,101012.00
2022-08-24T19:06:02.235Z,101025.00
2022-08-24T19:08:29.148Z,101013.00
2022-08-24T19:10:56.253Z,101017.00
2022-08-24T19:13:23.509Z,101013.00
2022-08-24T19:15:51.415Z,101022.00
2022-08-24T19:18:21.452Z,101024.00
2022-08-24T19:20:52.493Z,101022.00
2022-08-24T19:23:32.381Z,101019.00
2022-08-24T19:26:01.016Z,101031.00
2022-08-24T19:28:28.525Z,101018.00
2022-08-24T19:31:05.679Z,101017.00
2022-08-24T19:33:41.066Z,101023.00
2022-08-24T19:36:08.454Z,101026.00
2022-08-24T19:38:35.523Z,101023.00
2022-08-24T19:41:11.779Z,101017.00
2022-08-24T19:44:01.867Z,101022.00
2022-08-24T19:46:28.799Z,101021.00
2022-08-24T19:48:56.083Z,101021.00
2022-08-24T19:51:23.033Z,101022.00
2022-08-24T19:53:50.890Z,101020.00
2022-08-24T19:56:17.788Z,101020.00
2022-08-24T19:59:00.665Z,101014.00
2022-08-24T20:01:34.885Z,101020.00
2022-08-24T20:04:06.288Z,101017.00
2022-08-24T20:06:35.560Z,101020.00
2022-08-24T20:09:04.461Z,101020.00
2022-08-24T20:11:31.863Z,101026.00
2022-08-24T20:13:58.882Z,101022.00
2022-08-24T20:16:42.257Z,101025.00
2022-08-24T20:19:11.763Z,101024.00
2022-08-24T20:21:39.369Z,101024.00
2022-08-24T20:24:07.043Z,101023.00
2022-08-24T20:26:42.534Z,101019.00
2022-08-24T20:29:11.753Z,101015.00
2022-08-24T20:31:40.072Z,101019.00
2022-08-24T20:34:07.336Z,101021.00
2022-08-24T20:36:41.776Z,101018.00
2022-08-24T20:39:13.264Z,101019.00
2022-08-24T20:41:40.617Z,101025.00
2022-08-24T20:44:09.228Z,101028.00
2022-08-24T20:46:38.561Z,101030.00
2022-08-24T20:49:08.067Z,101035.00
2022-08-24T20:51:41.534Z,101031.00
2022-08-24T20:54:10.782Z,101037.00
2022-08-24T20:56:38.636Z,101027.00
2022-08-24T20:59:10.102Z,101036.00
2022-08-24T21:01:38.789Z,101031.00
2022-08-24T21:04:05.918Z,101033.00
2022-08-24T21:06:34.287Z,101033.00
2022-08-24T21:09:04.080Z,101033.00
2022-08-24T21:11:33.974Z,101030.00
2022-08-24T21:14:05.576Z,101032.00
2022-08-24T21:16:39.704Z,101026.00
2022-08-24T21:19:10.346Z,101028.00
2022-08-24T21:21:42.116Z,101012.00
2022-08-24T21:24:10.212Z,101020.00
2022-08-24T21:26:37.951Z,101007.00
2022-08-24T21:29:08.183Z,101019.00
2022-08-24T21:31:35.829Z,101012.00
2022-08-24T21:34:22.005Z,101023.00
2022-08-24T21:36:50.203Z,101033.00
2022-08-24T21:39:19.729Z,101032.00
2022-08-24T21:41:46.680Z,101027.00
2022-08-24T21:44:13.577Z,101026.00
2022-08-24T21:46:41.011Z,101027.00
2022-08-24T21:49:11.480Z,101024.00
2022-08-24T21:51:40.288Z,101029.00
2022-08-24T21:54:07.538Z,101024.00
2022-08-24T21:56:35.240Z,101024.00
2022-08-24T21:59:03.120Z,101024.00
2022-08-24T22:01:30.352Z,101036.00
2022-08-24T22:04:01.542Z,101032.00
2022-08-24T22:06:31.478Z,101009.00
2022-08-24T22:09:00.012Z,101028.00
2022-08-24T22:11:27.893Z,101023.00
2022-08-24T22:13:55.116Z,101026.00
2022-08-24T22:16:23.429Z,101021.00
2022-08-24T22:18:51.040Z,101013.00
2022-08-24T22:21:24.314Z,101025.00
2022-08-24T22:23:51.376Z,101019.00
2022-08-24T22:26:18.916Z,101028.00
2022-08-24T22:28:45.993Z,101026.00
2022-08-24T22:31:27.031Z,101020.00
2022-08-24T22:33:56.726Z,101024.00
2022-08-24T22:36:26.296Z,101021.00
2022-08-24T22:38:56.642Z,101023.00
2022-08-24T22:41:24.627Z,101018.00
2022-08-24T22:44:12.070Z,101014.00
2022-08-24T22:46:39.343Z,100998.00
2022-08-24T22:49:08.964Z,101022.00
2022-08-24T22:51:36.848Z,101020.00
2022-08-24T22:54:04.778Z,101011.00
2022-08-24T22:56:36.642Z,101020.00
2022-08-24T22:59:05.476Z,101019.00
2022-08-24T23:01:41.473Z,101006.00
2022-08-24T23:04:13.894Z,101017.00
2022-08-24T23:06:41.124Z,101019.00
2022-08-24T23:09:08.905Z,101019.00
2022-08-24T23:11:36.027Z,101013.00
2022-08-24T23:14:05.083Z,101006.00
2022-08-24T23:16:36.274Z,101003.00
2022-08-24T23:19:22.902Z,100987.00
2022-08-24T23:21:50.125Z,100997.00
2022-08-24T23:24:17.244Z,100987.00
2022-08-24T23:26:44.826Z,100986.00
2022-08-24T23:29:13.992Z,100989.00
2022-08-24T23:31:42.843Z,100996.00
2022-08-24T23:34:10.742Z,100987.00
2022-08-24T23:36:39.199Z,100993.00
2022-08-24T23:39:09.415Z,101000.00
2022-08-24T23:41:40.361Z,100992.00
2022-08-24T23:44:14.224Z,100980.00
2022-08-24T23:46:41.727Z,100985.00
2022-08-24T23:49:09.695Z,100977.00
2022-08-24T23:51:37.695Z,100983.00
2022-08-24T23:54:07.188Z,100988.00
2022-08-24T23:56:38.430Z,100986.00
2022-08-24T23:59:10.752Z,100987.00
